Terminal Aerodrome Forecast
Issued by NWS

Home | Current Version | Previous Version | Text Only | Print | Product List | Glossary On
Versions: 1 2 3 4 5 6 7 8 9 10 11 12 13 14 15 16 17
216
FTUS45 KABQ 200540
TAFSAF
TAF
KSAF 200540Z 2006/2106 30008KT P6SM VCSH BKN035 BKN050 OVC090
     FM201300 23010KT 6SM -SHSN BKN025 OVC040
     FM201600 23015KT P6SM SCT025 BKN050
     FM201800 25021G28KT P6SM OVC050
     FM210100 27012KT P6SM VCSH OVC050=

USA.gov is the U.S. government's official web portal to all federal, state and local government web resources and services.